2022年5月22日

时间 代码 天气 温度 能见度 乌云 METAR/SPECI
06:50
V
10 °C 10 km+ - 240°   240° 3 kt METAR EDWE 220450Z AUTO 24003KT 9999 // NCD 10/09 Q1017
06:20
V
9 °C 10 km+ - 250°   250° 4 kt METAR EDWE 220420Z AUTO 25004KT 9999 // NCD 09/08 Q1017
05:50
V
9 °C 10 km+ - 250°   250° 4 kt METAR EDWE 220350Z AUTO 25004KT 9999 // NCD 09/08 Q1018
05:20
V
9 °C 10 km+ - 250°   250° 6 kt METAR EDWE 220320Z AUTO 25006KT 9999 // FEW240/// 09/08 Q1018
04:50
V
8 °C 10 km+ - 250°   250° 5 kt METAR EDWE 220250Z AUTO 25005KT 9999 // NCD 08/07 Q1018
04:20
V
9 °C 10 km+ - 240°   240° 4 kt METAR EDWE 220220Z AUTO 24004KT 9999 // NCD 09/08 Q1018
03:50
V
9 °C 10 km+ - 240°   240° 5 kt METAR EDWE 220150Z AUTO 24005KT 9999 // FEW026/// 09/08 Q1018
03:20
V
9 °C 10 km+ - 240°   240° 5 kt METAR EDWE 220120Z AUTO 24005KT 9999 // NCD 09/08 Q1018
02:50
V
9 °C 10 km+ - 250°   250° 4 kt METAR EDWE 220050Z AUTO 25004KT 9999 // NCD 09/08 Q1018
02:20
V
10 °C 10 km+ - 250°   250° 4 kt METAR EDWE 220020Z AUTO 25004KT 9999 // FEW130/// 10/08 Q1018
01:50
V
9 °C 10 km+ - 260°   260° 4 kt METAR EDWE 212350Z AUTO 26004KT 9999 // FEW130/// 09/08 Q1019
01:20
V
9 °C 10 km+ - 250°   250° 5 kt METAR EDWE 212320Z AUTO 25005KT 9999 // NCD 09/08 Q1019
00:50
V
9 °C 10 km+ - 250°   250° 5 kt METAR EDWE 212250Z AUTO 25005KT 9999 // NCD 09/08 Q1019
00:20
V
10 °C 10 km+ - 250°   250° 5 kt METAR EDWE 212220Z AUTO 25005KT 9999 // NCD 10/08 Q1019

2022年5月21日

时间 代码 天气 温度 能见度 乌云 METAR/SPECI
23:50
V
10 °C 10 km+ - 240°   240° 5 kt METAR EDWE 212150Z AUTO 24005KT 9999 // SCT130/// 10/08 Q1019
23:20
V
10 °C 10 km+ 14.000 ft 260°   260° 5 kt METAR EDWE 212120Z AUTO 26005KT 9999 // BKN140/// 10/08 Q1019
22:50
V
11 °C 10 km+ - 270°   270° 6 kt METAR EDWE 212050Z AUTO 27006KT 9999 // NCD 11/08 Q1020
22:20
V
12 °C 10 km+ 17.000 ft 270°   270° 7 kt METAR EDWE 212020Z AUTO 27007KT 9999 // BKN170/// 12/08 Q1020
21:50
V
13 °C 10 km+ 16.000 ft 270°   270° 7 kt METAR EDWE 211950Z AUTO 27007KT 9999 // OVC160/// 13/09 Q1019
21:20
V
13 °C 10 km+ 15.000 ft 270°   270° 8 kt METAR EDWE 211920Z AUTO 27008KT 9999 // BKN150/// 13/09 Q1019
20:50
V
13 °C 10 km+ 16.000 ft 280°   280° 7 kt METAR EDWE 211850Z AUTO 28007KT 9999 // FEW140/// BKN160/// 13/09 Q1019
20:20
V
13 °C 10 km+ - 290°   290° 8 kt METAR EDWE 211820Z 29008KT CAVOK 13/09 Q1019
19:50
V
14 °C 10 km+ - 300°   300° 10 kt METAR EDWE 211750Z 30010KT CAVOK 14/10 Q1019
19:20
V
14 °C 10 km+ - 290°   290° 11 kt METAR EDWE 211720Z 29011KT 9999 FEW047 14/10 Q1019
18:50
V
15 °C 10 km+ - 290°   290° 12 kt METAR EDWE 211650Z 29012KT 9999 SCT025 15/10 Q1019
18:20
V
15 °C 10 km+ - 290°   290° 12 kt METAR EDWE 211620Z 29012KT 9999 FEW024 15/10 Q1019
17:50
V
16 °C 10 km+ - 290°   290° 12 kt METAR EDWE 211550Z 29012KT 260V320 9999 FEW021 16/10 Q1019
17:20
V
16 °C 10 km+ - 290°   290° 13 kt METAR EDWE 211520Z 29013KT 9999 FEW024 16/10 Q1019
16:50
V
16 °C 10 km+ - 300°   300° 15 kt METAR EDWE 211450Z 30015KT 9999 FEW025 16/10 Q1019
16:20
V
17 °C 10 km+ - 280°   280° 15 kt METAR EDWE 211420Z 28015KT 260V320 9999 SCT028 17/09 Q1019
15:50
V
16 °C 10 km+ - 280°   280° 14 kt METAR EDWE 211350Z 28014KT 250V310 9999 FEW022 SCT028 16/10 Q1019
15:20
V
15 °C 10 km+ - 300°   300° 14 kt METAR EDWE 211320Z 30014KT 9999 SCT022 SCT026 15/10 Q1019
14:50
V
17 °C 10 km+ - 280°   280° 16 kt METAR EDWE 211250Z 28016KT 260V320 9999 SCT026 17/10 Q1019
14:20
V
16 °C 10 km+ - 290°   290° 15 kt METAR EDWE 211220Z 29015KT 250V320 9999 FEW020 SCT024 16/11 Q1019
13:50
V
16 °C 10 km+ - 280°   280° 19 kt METAR EDWE 211150Z 28019KT 9999 FEW027 16/10 Q1018
07:50
M
13 °C 10 km+ 1.500 ft 250°   250° 14 kt METAR EDWE 210550Z AUTO 25014KT 9999 // BKN015/// BKN024/// 13/11 Q1015
07:20
M
13 °C 10 km+ 1.700 ft 250°   250° 14 kt METAR EDWE 210520Z AUTO 25014KT 9999 // BKN017/// BKN062/// BKN075/// 13/11 Q1015
06:50
M
13 °C 10 km+ 1.400 ft 240°   240° 14 kt METAR EDWE 210450Z AUTO 24014KT 9999 // BKN014/// BKN020/// BKN075/// 13/12 Q1015
06:20
M
13 °C 10 km+ 1.300 ft 230°   230° 13 kt METAR EDWE 210420Z AUTO 23013KT 9999 // BKN013/// BKN018/// 13/12 Q1014
05:50
M
13 °C 9 km 1.100 ft 220°   220° 10 20 kt METAR EDWE 210350Z AUTO 22010G20KT 9000 // BKN011/// OVC017/// 13/11 Q1015
05:20
I
12 °C 8 km 700 ft 220°   220° 11 kt METAR EDWE 210320Z AUTO 22011KT 180V240 8000 // OVC007/// 12/11 Q1015
04:50
M
12 °C 8 km 1.300 ft 220°   220° 10 kt METAR EDWE 210250Z AUTO 22010KT 190V250 8000 // FEW008/// BKN013/// BKN054/// 12/11 Q1015
04:20
V
12 °C 10 km+ 8.100 ft 220°   220° 10 kt METAR EDWE 210220Z AUTO 22010KT 9999 // FEW013/// BKN081/// 12/10 Q1015
03:50
V
11 °C 10 km+ - 220°   220° 8 kt METAR EDWE 210150Z AUTO 22008KT 9999 // FEW014/// SCT080/// 11/10 Q1015
03:20
V
11 °C 10 km+ - 210°   210° 6 kt METAR EDWE 210120Z AUTO 21006KT 9999 // FEW044/// 11/10 Q1015
02:50
V
11 °C 10 km+ - 230°   230° 8 kt METAR EDWE 210050Z AUTO 23008KT 9999 // SCT046/// 11/09 Q1016
02:20
V
11 °C 10 km+ - 240°   240° 10 kt METAR EDWE 210020Z AUTO 24010KT 9999 // NCD 11/09 Q1016
01:50
V
11 °C 10 km+ - 240°   240° 10 kt METAR EDWE 202350Z AUTO 24010KT 9999 // NCD 11/09 Q1016
01:20
V
10 °C 10 km+ - 250°   250° 9 kt METAR EDWE 202320Z AUTO 25009KT 9999 // NCD 10/09 Q1016
00:50
V
11 °C 10 km+ - 250°   250° 11 kt METAR EDWE 202250Z AUTO 25011KT 9999 // FEW013/// 11/10 Q1016
00:20
V
11 °C 10 km+ - 260°   260° 13 kt METAR EDWE 202220Z AUTO 26013KT 9999 // FEW013/// SCT019/// 11/10 Q1015

2022年5月20日

时间 代码 天气 温度 能见度 乌云 METAR/SPECI
23:50
V
11 °C 10 km+ 4.000 ft 270°   270° 10 kt METAR EDWE 202150Z AUTO 27010KT 9999 // SCT007/// BKN040/// OVC072/// 11/10 Q1015
23:20
I
12 °C 8 km 900 ft 280°   280° 9 kt METAR EDWE 202120Z AUTO 28009KT 8000 // BKN009/// BKN012/// OVC015/// 12/11 Q1015
22:50
V
12 °C 10 km+ 5.800 ft 290°   290° 9 kt METAR EDWE 202050Z AUTO 29009KT 9999 // FEW019/// BKN058/// OVC079/// 12/10 Q1014
22:20
M
12 °C 10 km+ 2.000 ft 290°   290° 9 kt METAR EDWE 202020Z AUTO 29009KT 9999 // BKN020/// BKN026/// OVC033/// 12/10 Q1014
21:50
M
12 °C 10 km+ 1.500 ft 290°   290° 13 kt METAR EDWE 201950Z AUTO 29013KT 9999 // FEW011/// BKN015/// OVC070/// 12/10 Q1014
21:20
V
12 °C 10 km+ 7.000 ft 280°   280° 9 kt METAR EDWE 201920Z AUTO 28009KT 9999 // OVC070/// 12/11 Q1013
20:50
V
13 °C 10 km+ 7.500 ft 340°   340° 8 kt METAR EDWE 201850Z AUTO 34008KT 9999 // FEW007/// BKN075/// OVC099/// 13/12 Q1011
20:20
M
13 °C 7 km - 340°   340° 13 kt METAR EDWE 201820Z 34013KT 310V020 7000 -DZ FEW008 SCT028 13/12 Q1012 RERA
19:50
I
14 °C 3,4 km 3.000 ft 300°   300° 10 kt METAR EDWE 201750Z 30010KT 280V340 3400 RA FEW004 SCT010 OVC030 14/13 Q1012
19:20
I
14 °C 2,8 km 3.800 ft 330°   330° 6 kt METAR EDWE 201720Z 33006KT 2800 RA SCT005 OVC038 14/13 Q1011
18:50
I
14 °C 4,8 km 3.000 ft 300°   300° 5 kt METAR EDWE 201650Z 30005KT 270V330 4800 RA OVC030 14/12 Q1012
18:20
V
15 °C 10 km+ 3.100 ft 320°   320° 6 kt METAR EDWE 201620Z 32006KT 9999 RA OVC031 15/13 Q1012
17:50
V
16 °C 10 km+ - 320°   320° 5 kt METAR EDWE 201550Z 32005KT 9999 DZ FEW037 16/14 Q1012 RERA
17:20
V
16 °C 9 km 5.800 ft 330°   330° 4 kt METAR EDWE 201520Z 33004KT 9000 RA OVC058 16/14 Q1013
16:50
V
17 °C 10 km+ - 100°   100° 4 kt METAR EDWE 201450Z 10004KT CAVOK 17/12 Q1013
16:20
V
18 °C 10 km+ - 110°   110° 8 kt METAR EDWE 201420Z 11008KT CAVOK 18/11 Q1013
15:50
V
18 °C 10 km+ - 090°   090° 8 kt METAR EDWE 201350Z 09008KT CAVOK 18/10 Q1014
15:20
V
19 °C 10 km+ - 110°   110° 7 kt METAR EDWE 201320Z 11007KT 070V150 CAVOK 19/10 Q1015
14:50
V
18 °C 10 km+ - 120°   120° 7 kt METAR EDWE 201250Z 12007KT 090V170 CAVOK 18/09 Q1015
14:20
V
19 °C 10 km+ - 130°   130° 5 kt METAR EDWE 201220Z 13005KT 060V200 CAVOK 19/11 Q1016
13:20
V
17 °C 10 km+ - 120°   120° 4 kt METAR EDWE 201120Z 12004KT 030V190 CAVOK 17/11 Q1018
06:50
V
12 °C 9 km 16.000 ft 240°   240° 6 kt METAR EDWE 200450Z AUTO 24006KT 9000 // BKN160/// 12/11 Q1021
较旧的数据

下载我们的应用程序

在您的手机和平板电脑上轻松访问所有航空天气。
有许多网站上没有的功能,如离线支持和个人机场列表。

Studio Eveline

Benalmádena
España

我们和第三方通过cookies跟踪您在我们网站上的上网行为。如果您继续,我们认为您同意我们的cookie政策。 了解更多